sensor_id;sensor_type;location;lat;lon;timestamp;temperature;humidity
79571;DHT22;69034;49.444;7.758;2023-06-10T00:00:52;23.90;39.70
79571;DHT22;69034;49.444;7.758;2023-06-10T00:04:52;23.90;39.60
79571;DHT22;69034;49.444;7.758;2023-06-10T00:08:53;24.00;39.60
79571;DHT22;69034;49.444;7.758;2023-06-10T00:12:55;24.00;39.80
79571;DHT22;69034;49.444;7.758;2023-06-10T00:16:56;24.00;39.90
79571;DHT22;69034;49.444;7.758;2023-06-10T00:20:58;24.00;39.90
79571;DHT22;69034;49.444;7.758;2023-06-10T00:25:05;23.60;40.20
79571;DHT22;69034;49.444;7.758;2023-06-10T00:29:07;23.40;40.60
79571;DHT22;69034;49.444;7.758;2023-06-10T00:33:07;23.20;41.00
79571;DHT22;69034;49.444;7.758;2023-06-10T00:37:08;23.00;41.10
79571;DHT22;69034;49.444;7.758;2023-06-10T00:41:09;22.90;41.40
79571;DHT22;69034;49.444;7.758;2023-06-10T00:45:09;22.70;41.70
79571;DHT22;69034;49.444;7.758;2023-06-10T00:49:11;22.50;42.00
79571;DHT22;69034;49.444;7.758;2023-06-10T00:53:13;22.40;42.30
79571;DHT22;69034;49.444;7.758;2023-06-10T00:57:17;22.30;42.50
79571;DHT22;69034;49.444;7.758;2023-06-10T01:01:18;22.30;42.60
79571;DHT22;69034;49.444;7.758;2023-06-10T01:05:20;22.20;42.80
79571;DHT22;69034;49.444;7.758;2023-06-10T01:09:31;22.10;42.90
79571;DHT22;69034;49.444;7.758;2023-06-10T01:13:36;22.00;43.20
79571;DHT22;69034;49.444;7.758;2023-06-10T01:17:59;21.80;43.40
79571;DHT22;69034;49.444;7.758;2023-06-10T01:22:00;21.70;43.80
79571;DHT22;69034;49.444;7.758;2023-06-10T01:26:04;21.50;43.90
79571;DHT22;69034;49.444;7.758;2023-06-10T01:30:15;21.40;44.20
79571;DHT22;69034;49.444;7.758;2023-06-10T01:34:19;21.30;44.50
79571;DHT22;69034;49.444;7.758;2023-06-10T01:38:23;21.10;44.70
79571;DHT22;69034;49.444;7.758;2023-06-10T01:42:25;21.00;45.00
79571;DHT22;69034;49.444;7.758;2023-06-10T01:46:26;20.90;45.10
79571;DHT22;69034;49.444;7.758;2023-06-10T01:50:27;20.80;45.30
79571;DHT22;69034;49.444;7.758;2023-06-10T01:54:27;20.70;45.40
79571;DHT22;69034;49.444;7.758;2023-06-10T01:58:28;20.60;45.70
79571;DHT22;69034;49.444;7.758;2023-06-10T02:02:29;20.50;45.80
79571;DHT22;69034;49.444;7.758;2023-06-10T02:06:30;20.50;46.00
79571;DHT22;69034;49.444;7.758;2023-06-10T02:10:31;20.40;46.00
79571;DHT22;69034;49.444;7.758;2023-06-10T02:14:33;20.30;46.10
79571;DHT22;69034;49.444;7.758;2023-06-10T02:18:34;20.30;46.30
79571;DHT22;69034;49.444;7.758;2023-06-10T02:22:36;20.20;46.40
79571;DHT22;69034;49.444;7.758;2023-06-10T02:26:37;20.20;46.60
79571;DHT22;69034;49.444;7.758;2023-06-10T02:30:41;20.10;46.70
79571;DHT22;69034;49.444;7.758;2023-06-10T02:34:43;20.00;47.00
79571;DHT22;69034;49.444;7.758;2023-06-10T02:38:45;19.90;47.10
79571;DHT22;69034;49.444;7.758;2023-06-10T02:42:49;20.00;47.40
79571;DHT22;69034;49.444;7.758;2023-06-10T02:46:50;20.10;47.40
79571;DHT22;69034;49.444;7.758;2023-06-10T02:50:52;20.10;47.40
79571;DHT22;69034;49.444;7.758;2023-06-10T02:54:53;20.20;47.60
79571;DHT22;69034;49.444;7.758;2023-06-10T02:58:54;20.30;47.60
79571;DHT22;69034;49.444;7.758;2023-06-10T03:02:55;20.30;47.60
79571;DHT22;69034;49.444;7.758;2023-06-10T03:07:03;20.30;47.80
79571;DHT22;69034;49.444;7.758;2023-06-10T03:11:04;20.30;47.80
79571;DHT22;69034;49.444;7.758;2023-06-10T03:15:05;20.30;47.90
79571;DHT22;69034;49.444;7.758;2023-06-10T03:19:09;20.30;48.00
79571;DHT22;69034;49.444;7.758;2023-06-10T03:23:10;20.20;48.00
79571;DHT22;69034;49.444;7.758;2023-06-10T03:27:11;20.20;48.00
79571;DHT22;69034;49.444;7.758;2023-06-10T03:31:13;20.20;48.10
79571;DHT22;69034;49.444;7.758;2023-06-10T03:35:14;20.20;48.10
79571;DHT22;69034;49.444;7.758;2023-06-10T03:39:15;20.20;48.20
79571;DHT22;69034;49.444;7.758;2023-06-10T03:43:16;20.10;48.40
79571;DHT22;69034;49.444;7.758;2023-06-10T03:47:17;20.10;48.40
79571;DHT22;69034;49.444;7.758;2023-06-10T03:51:17;20.10;48.40
79571;DHT22;69034;49.444;7.758;2023-06-10T03:55:18;20.00;48.60
79571;DHT22;69034;49.444;7.758;2023-06-10T03:59:25;19.80;48.80
79571;DHT22;69034;49.444;7.758;2023-06-10T04:03:25;19.70;49.00
79571;DHT22;69034;49.444;7.758;2023-06-10T04:07:28;19.70;49.10
79571;DHT22;69034;49.444;7.758;2023-06-10T04:11:29;19.60;49.20
79571;DHT22;69034;49.444;7.758;2023-06-10T04:15:33;19.60;49.20
79571;DHT22;69034;49.444;7.758;2023-06-10T04:19:34;19.60;49.20
79571;DHT22;69034;49.444;7.758;2023-06-10T04:23:35;19.60;49.20
79571;DHT22;69034;49.444;7.758;2023-06-10T04:27:37;19.60;49.30
79571;DHT22;69034;49.444;7.758;2023-06-10T04:31:38;19.60;49.50
79571;DHT22;69034;49.444;7.758;2023-06-10T04:35:39;19.60;49.30
79571;DHT22;69034;49.444;7.758;2023-06-10T04:39:39;19.60;49.30
79571;DHT22;69034;49.444;7.758;2023-06-10T04:43:43;19.80;49.80
79571;DHT22;69034;49.444;7.758;2023-06-10T04:47:43;20.30;49.20
79571;DHT22;69034;49.444;7.758;2023-06-10T04:51:44;20.70;48.80
79571;DHT22;69034;49.444;7.758;2023-06-10T04:55:45;20.90;48.50
79571;DHT22;69034;49.444;7.758;2023-06-10T04:59:46;21.00;48.40
79571;DHT22;69034;49.444;7.758;2023-06-10T05:03:47;21.20;48.20
79571;DHT22;69034;49.444;7.758;2023-06-10T05:07:47;21.30;48.10
79571;DHT22;69034;49.444;7.758;2023-06-10T05:11:48;21.40;48.10
79571;DHT22;69034;49.444;7.758;2023-06-10T05:15:49;21.50;47.80
79571;DHT22;69034;49.444;7.758;2023-06-10T05:19:49;21.60;47.70
79571;DHT22;69034;49.444;7.758;2023-06-10T05:23:50;21.60;47.60
79571;DHT22;69034;49.444;7.758;2023-06-10T05:27:51;21.70;47.60
79571;DHT22;69034;49.444;7.758;2023-06-10T05:31:51;22.00;47.40
79571;DHT22;69034;49.444;7.758;2023-06-10T05:35:53;22.20;47.00
79571;DHT22;69034;49.444;7.758;2023-06-10T05:39:54;22.40;46.70
79571;DHT22;69034;49.444;7.758;2023-06-10T05:43:54;22.60;46.50
79571;DHT22;69034;49.444;7.758;2023-06-10T05:47:55;22.90;46.10
79571;DHT22;69034;49.444;7.758;2023-06-10T05:51:56;23.20;45.60
79571;DHT22;69034;49.444;7.758;2023-06-10T05:55:58;23.60;45.20
79571;DHT22;69034;49.444;7.758;2023-06-10T05:59:59;23.80;44.80
79571;DHT22;69034;49.444;7.758;2023-06-10T06:04:01;24.10;44.50
79571;DHT22;69034;49.444;7.758;2023-06-10T06:08:02;24.40;44.20
79571;DHT22;69034;49.444;7.758;2023-06-10T06:12:02;24.70;43.90
79571;DHT22;69034;49.444;7.758;2023-06-10T06:16:06;24.90;43.70
79571;DHT22;69034;49.444;7.758;2023-06-10T06:20:08;25.20;43.50
79571;DHT22;69034;49.444;7.758;2023-06-10T06:24:09;25.40;43.20
79571;DHT22;69034;49.444;7.758;2023-06-10T06:28:10;25.70;42.90
79571;DHT22;69034;49.444;7.758;2023-06-10T06:32:12;25.90;42.40
79571;DHT22;69034;49.444;7.758;2023-06-10T06:36:12;26.10;42.10
79571;DHT22;69034;49.444;7.758;2023-06-10T06:40:13;26.40;41.80
79571;DHT22;69034;49.444;7.758;2023-06-10T06:44:15;26.60;41.50
79571;DHT22;69034;49.444;7.758;2023-06-10T06:48:17;26.80;41.20
79571;DHT22;69034;49.444;7.758;2023-06-10T06:52:18;27.00;40.90
79571;DHT22;69034;49.444;7.758;2023-06-10T06:56:19;27.20;40.80
79571;DHT22;69034;49.444;7.758;2023-06-10T07:00:22;27.50;40.50
79571;DHT22;69034;49.444;7.758;2023-06-10T07:04:23;27.80;40.00
79571;DHT22;69034;49.444;7.758;2023-06-10T07:08:24;27.90;39.70
79571;DHT22;69034;49.444;7.758;2023-06-10T07:12:25;28.10;39.60
79571;DHT22;69034;49.444;7.758;2023-06-10T07:16:25;28.50;39.40
79571;DHT22;69034;49.444;7.758;2023-06-10T07:20:26;28.70;38.90
79571;DHT22;69034;49.444;7.758;2023-06-10T07:24:27;28.90;38.70
79571;DHT22;69034;49.444;7.758;2023-06-10T07:28:28;29.20;38.30
79571;DHT22;69034;49.444;7.758;2023-06-10T07:32:28;29.60;37.60
79571;DHT22;69034;49.444;7.758;2023-06-10T07:36:29;29.80;37.10
79571;DHT22;69034;49.444;7.758;2023-06-10T07:40:30;30.00;36.60
79571;DHT22;69034;49.444;7.758;2023-06-10T07:44:30;30.20;36.00
79571;DHT22;69034;49.444;7.758;2023-06-10T07:48:31;30.60;35.70
79571;DHT22;69034;49.444;7.758;2023-06-10T07:52:32;30.90;35.10
79571;DHT22;69034;49.444;7.758;2023-06-10T07:56:33;31.00;33.80
79571;DHT22;69034;49.444;7.758;2023-06-10T08:00:33;31.00;33.90
79571;DHT22;69034;49.444;7.758;2023-06-10T08:04:35;31.30;33.90
79571;DHT22;69034;49.444;7.758;2023-06-10T08:08:36;31.60;33.60
79571;DHT22;69034;49.444;7.758;2023-06-10T08:12:42;32.00;33.00
79571;DHT22;69034;49.444;7.758;2023-06-10T08:16:44;32.30;32.40
79571;DHT22;69034;49.444;7.758;2023-06-10T08:20:45;32.50;31.90
79571;DHT22;69034;49.444;7.758;2023-06-10T08:24:45;32.80;31.40
79571;DHT22;69034;49.444;7.758;2023-06-10T08:28:46;33.00;31.00
79571;DHT22;69034;49.444;7.758;2023-06-10T08:32:47;33.00;30.50
79571;DHT22;69034;49.444;7.758;2023-06-10T08:36:48;33.20;30.30
79571;DHT22;69034;49.444;7.758;2023-06-10T08:40:56;33.20;29.80
79571;DHT22;69034;49.444;7.758;2023-06-10T08:45:01;33.40;29.40
79571;DHT22;69034;49.444;7.758;2023-06-10T08:49:05;33.60;29.30
79571;DHT22;69034;49.444;7.758;2023-06-10T08:53:14;33.90;28.80
79571;DHT22;69034;49.444;7.758;2023-06-10T08:57:18;34.20;28.50
79571;DHT22;69034;49.444;7.758;2023-06-10T09:01:21;34.60;28.00
79571;DHT22;69034;49.444;7.758;2023-06-10T09:05:23;34.90;27.70
79571;DHT22;69034;49.444;7.758;2023-06-10T09:09:25;35.10;27.40
79571;DHT22;69034;49.444;7.758;2023-06-10T09:13:27;35.10;27.20
79571;DHT22;69034;49.444;7.758;2023-06-10T09:17:28;35.20;27.00
79571;DHT22;69034;49.444;7.758;2023-06-10T09:21:29;35.50;27.00
79571;DHT22;69034;49.444;7.758;2023-06-10T09:25:37;35.80;26.60
79571;DHT22;69034;49.444;7.758;2023-06-10T09:33:51;36.60;25.90
79571;DHT22;69034;49.444;7.758;2023-06-10T09:37:52;36.90;25.40
79571;DHT22;69034;49.444;7.758;2023-06-10T09:41:53;37.20;24.80
79571;DHT22;69034;49.444;7.758;2023-06-10T09:45:56;36.80;24.90
79571;DHT22;69034;49.444;7.758;2023-06-10T09:49:57;36.40;24.90
79571;DHT22;69034;49.444;7.758;2023-06-10T09:54:02;36.40;25.00
79571;DHT22;69034;49.444;7.758;2023-06-10T09:58:03;36.90;24.60
79571;DHT22;69034;49.444;7.758;2023-06-10T10:02:05;36.00;24.90
79571;DHT22;69034;49.444;7.758;2023-06-10T10:06:06;36.50;24.50
79571;DHT22;69034;49.444;7.758;2023-06-10T10:10:07;37.50;19.90
79571;DHT22;69034;49.444;7.758;2023-06-10T10:14:09;36.20;24.10
79571;DHT22;69034;49.444;7.758;2023-06-10T10:18:14;37.00;24.30
79571;DHT22;69034;49.444;7.758;2023-06-10T10:22:34;36.90;19.60
79571;DHT22;69034;49.444;7.758;2023-06-10T10:26:36;36.80;24.20
79571;DHT22;69034;49.444;7.758;2023-06-10T10:30:46;36.90;24.70
79571;DHT22;69034;49.444;7.758;2023-06-10T10:39:13;36.20;24.00
79571;DHT22;69034;49.444;7.758;2023-06-10T10:43:14;35.40;24.50
79571;DHT22;69034;49.444;7.758;2023-06-10T10:47:21;37.80;19.70
79571;DHT22;69034;49.444;7.758;2023-06-10T10:51:23;39.60;18.50
79571;DHT22;69034;49.444;7.758;2023-06-10T10:55:25;41.10;17.80
79571;DHT22;69034;49.444;7.758;2023-06-10T10:59:53;39.90;17.70
79571;DHT22;69034;49.444;7.758;2023-06-10T11:03:59;41.30;17.40
79571;DHT22;69034;49.444;7.758;2023-06-10T11:07:59;40.90;17.50
79571;DHT22;69034;49.444;7.758;2023-06-10T11:12:00;41.50;16.10
79571;DHT22;69034;49.444;7.758;2023-06-10T11:16:04;40.50;17.80
79571;DHT22;69034;49.444;7.758;2023-06-10T11:20:08;42.00;16.70
79571;DHT22;69034;49.444;7.758;2023-06-10T11:24:13;42.60;16.60
79571;DHT22;69034;49.444;7.758;2023-06-10T11:28:20;43.00;15.90
79571;DHT22;69034;49.444;7.758;2023-06-10T11:32:21;43.90;15.60
79571;DHT22;69034;49.444;7.758;2023-06-10T11:36:23;43.90;15.50
79571;DHT22;69034;49.444;7.758;2023-06-10T11:40:24;44.70;14.90
79571;DHT22;69034;49.444;7.758;2023-06-10T11:44:28;43.50;14.70
79571;DHT22;69034;49.444;7.758;2023-06-10T11:48:29;43.20;15.60
79571;DHT22;69034;49.444;7.758;2023-06-10T11:52:31;44.90;14.80
79571;DHT22;69034;49.444;7.758;2023-06-10T11:56:40;46.70;13.90
79571;DHT22;69034;49.444;7.758;2023-06-10T12:00:52;47.90;13.40
79571;DHT22;69034;49.444;7.758;2023-06-10T12:05:15;47.40;13.60
79571;DHT22;69034;49.444;7.758;2023-06-10T12:09:34;48.60;12.80
79571;DHT22;69034;49.444;7.758;2023-06-10T12:13:34;47.40;13.40
79571;DHT22;69034;49.444;7.758;2023-06-10T12:17:37;48.20;12.40
79571;DHT22;69034;49.444;7.758;2023-06-10T12:21:38;43.70;14.30
79571;DHT22;69034;49.444;7.758;2023-06-10T12:25:53;41.70;15.10
79571;DHT22;69034;49.444;7.758;2023-06-10T12:29:53;42.30;15.60
79571;DHT22;69034;49.444;7.758;2023-06-10T12:34:11;46.30;13.70
79571;DHT22;69034;49.444;7.758;2023-06-10T12:38:13;45.60;13.00
79571;DHT22;69034;49.444;7.758;2023-06-10T12:42:14;46.90;13.80
79571;DHT22;69034;49.444;7.758;2023-06-10T12:46:15;49.60;12.60
79571;DHT22;69034;49.444;7.758;2023-06-10T12:50:20;51.00;11.90
79571;DHT22;69034;49.444;7.758;2023-06-10T12:54:21;52.10;11.50
79571;DHT22;69034;49.444;7.758;2023-06-10T12:58:22;52.30;11.00
79571;DHT22;69034;49.444;7.758;2023-06-10T13:02:23;53.00;11.00
79571;DHT22;69034;49.444;7.758;2023-06-10T13:06:24;50.60;10.90
79571;DHT22;69034;49.444;7.758;2023-06-10T13:10:26;48.30;11.40
79571;DHT22;69034;49.444;7.758;2023-06-10T13:14:27;45.80;11.90
79571;DHT22;69034;49.444;7.758;2023-06-10T13:18:29;43.30;12.70
79571;DHT22;69034;49.444;7.758;2023-06-10T13:22:31;41.70;13.40
79571;DHT22;69034;49.444;7.758;2023-06-10T13:26:34;40.60;13.80
79571;DHT22;69034;49.444;7.758;2023-06-10T13:30:34;40.10;14.10
79571;DHT22;69034;49.444;7.758;2023-06-10T13:34:36;40.80;13.80
79571;DHT22;69034;49.444;7.758;2023-06-10T13:38:37;41.20;13.90
79571;DHT22;69034;49.444;7.758;2023-06-10T13:42:38;43.40;13.50
79571;DHT22;69034;49.444;7.758;2023-06-10T13:46:40;46.60;12.50
79571;DHT22;69034;49.444;7.758;2023-06-10T13:50:42;45.70;12.10
79571;DHT22;69034;49.444;7.758;2023-06-10T13:54:45;46.20;12.60
79571;DHT22;69034;49.444;7.758;2023-06-10T13:58:46;48.20;11.90
79571;DHT22;69034;49.444;7.758;2023-06-10T14:02:47;49.90;11.10
79571;DHT22;69034;49.444;7.758;2023-06-10T14:06:49;51.40;10.70
79571;DHT22;69034;49.444;7.758;2023-06-10T14:10:49;50.40;10.70
79571;DHT22;69034;49.444;7.758;2023-06-10T14:14:54;46.70;11.70
79571;DHT22;69034;49.444;7.758;2023-06-10T14:18:54;44.30;12.40
79571;DHT22;69034;49.444;7.758;2023-06-10T14:22:58;44.00;12.50
79571;DHT22;69034;49.444;7.758;2023-06-10T14:26:58;46.40;12.10
79571;DHT22;69034;49.444;7.758;2023-06-10T14:31:01;48.10;11.50
79571;DHT22;69034;49.444;7.758;2023-06-10T14:35:02;50.20;10.90
79571;DHT22;69034;49.444;7.758;2023-06-10T14:39:03;51.50;10.50
79571;DHT22;69034;49.444;7.758;2023-06-10T14:43:04;52.20;10.10
79571;DHT22;69034;49.444;7.758;2023-06-10T14:47:11;48.10;11.00
79571;DHT22;69034;49.444;7.758;2023-06-10T14:51:13;45.10;11.90
79571;DHT22;69034;49.444;7.758;2023-06-10T14:55:13;42.90;12.70
79571;DHT22;69034;49.444;7.758;2023-06-10T14:59:14;46.00;11.70
79571;DHT22;69034;49.444;7.758;2023-06-10T15:03:15;48.00;11.10
79571;DHT22;69034;49.444;7.758;2023-06-10T15:07:18;48.90;10.80
79571;DHT22;69034;49.444;7.758;2023-06-10T15:11:19;49.50;10.70
79571;DHT22;69034;49.444;7.758;2023-06-10T15:15:21;50.00;10.60
79571;DHT22;69034;49.444;7.758;2023-06-10T15:19:22;50.20;10.50
79571;DHT22;69034;49.444;7.758;2023-06-10T15:23:22;50.40;10.50
79571;DHT22;69034;49.444;7.758;2023-06-10T15:27:24;50.50;10.60
79571;DHT22;69034;49.444;7.758;2023-06-10T15:31:26;50.50;10.50
79571;DHT22;69034;49.444;7.758;2023-06-10T15:35:27;50.60;10.50
79571;DHT22;69034;49.444;7.758;2023-06-10T15:39:28;50.50;10.40
79571;DHT22;69034;49.444;7.758;2023-06-10T15:43:30;50.30;10.20
79571;DHT22;69034;49.444;7.758;2023-06-10T15:47:34;50.10;10.20
79571;DHT22;69034;49.444;7.758;2023-06-10T15:51:37;50.10;10.30
79571;DHT22;69034;49.444;7.758;2023-06-10T15:55:39;50.10;10.30
79571;DHT22;69034;49.444;7.758;2023-06-10T15:59:39;49.90;10.30
79571;DHT22;69034;49.444;7.758;2023-06-10T16:03:41;49.90;10.30
79571;DHT22;69034;49.444;7.758;2023-06-10T16:07:44;49.80;10.30
79571;DHT22;69034;49.444;7.758;2023-06-10T16:11:45;49.20;10.30
79571;DHT22;69034;49.444;7.758;2023-06-10T16:15:46;49.00;10.40
79571;DHT22;69034;49.444;7.758;2023-06-10T16:19:46;48.90;10.40
79571;DHT22;69034;49.444;7.758;2023-06-10T16:23:47;48.90;10.30
79571;DHT22;69034;49.444;7.758;2023-06-10T16:27:49;48.80;10.30
79571;DHT22;69034;49.444;7.758;2023-06-10T16:31:50;48.80;10.30
79571;DHT22;69034;49.444;7.758;2023-06-10T16:35:52;48.70;10.40
79571;DHT22;69034;49.444;7.758;2023-06-10T16:39:54;48.80;10.40
79571;DHT22;69034;49.444;7.758;2023-06-10T16:43:55;48.90;10.40
79571;DHT22;69034;49.444;7.758;2023-06-10T16:47:56;48.90;10.30
79571;DHT22;69034;49.444;7.758;2023-06-10T16:51:57;48.70;10.30
79571;DHT22;69034;49.444;7.758;2023-06-10T16:55:58;48.50;10.30
79571;DHT22;69034;49.444;7.758;2023-06-10T16:59:59;48.20;10.30
79571;DHT22;69034;49.444;7.758;2023-06-10T17:03:59;48.20;10.30
79571;DHT22;69034;49.444;7.758;2023-06-10T17:08:00;48.00;10.20
79571;DHT22;69034;49.444;7.758;2023-06-10T17:12:00;47.60;10.30
79571;DHT22;69034;49.444;7.758;2023-06-10T17:16:01;47.30;10.40
79571;DHT22;69034;49.444;7.758;2023-06-10T17:20:02;46.80;10.50
79571;DHT22;69034;49.444;7.758;2023-06-10T17:24:05;46.30;10.80
79571;DHT22;69034;49.444;7.758;2023-06-10T17:28:06;45.80;11.00
79571;DHT22;69034;49.444;7.758;2023-06-10T17:32:07;45.20;11.40
79571;DHT22;69034;49.444;7.758;2023-06-10T17:36:08;44.60;11.70
79571;DHT22;69034;49.444;7.758;2023-06-10T17:40:09;44.10;12.10
79571;DHT22;69034;49.444;7.758;2023-06-10T17:44:13;43.50;12.30
79571;DHT22;69034;49.444;7.758;2023-06-10T17:48:16;42.80;12.60
79571;DHT22;69034;49.444;7.758;2023-06-10T17:52:19;42.40;12.70
79571;DHT22;69034;49.444;7.758;2023-06-10T17:56:19;42.00;12.90
79571;DHT22;69034;49.444;7.758;2023-06-10T18:00:20;41.60;13.20
79571;DHT22;69034;49.444;7.758;2023-06-10T18:04:27;41.10;13.50
79571;DHT22;69034;49.444;7.758;2023-06-10T18:08:27;40.60;13.80
79571;DHT22;69034;49.444;7.758;2023-06-10T18:12:32;40.00;14.10
79571;DHT22;69034;49.444;7.758;2023-06-10T18:16:33;39.60;14.40
79571;DHT22;69034;49.444;7.758;2023-06-10T18:20:33;39.10;14.90
79571;DHT22;69034;49.444;7.758;2023-06-10T18:24:36;38.50;15.30
79571;DHT22;69034;49.444;7.758;2023-06-10T18:28:37;38.10;15.60
79571;DHT22;69034;49.444;7.758;2023-06-10T18:32:38;37.60;15.80
79571;DHT22;69034;49.444;7.758;2023-06-10T18:36:40;37.00;16.30
79571;DHT22;69034;49.444;7.758;2023-06-10T18:40:40;36.50;16.70
79571;DHT22;69034;49.444;7.758;2023-06-10T18:44:41;36.00;17.20
79571;DHT22;69034;49.444;7.758;2023-06-10T18:48:42;35.30;17.80
79571;DHT22;69034;49.444;7.758;2023-06-10T18:52:44;34.60;18.50
79571;DHT22;69034;49.444;7.758;2023-06-10T18:56:46;34.00;18.90
79571;DHT22;69034;49.444;7.758;2023-06-10T19:00:48;33.50;19.40
79571;DHT22;69034;49.444;7.758;2023-06-10T19:04:49;33.10;19.70
79571;DHT22;69034;49.444;7.758;2023-06-10T19:08:50;32.70;24.20
79571;DHT22;69034;49.444;7.758;2023-06-10T19:12:50;32.40;24.50
79571;DHT22;69034;49.444;7.758;2023-06-10T19:16:51;32.10;24.90
79571;DHT22;69034;49.444;7.758;2023-06-10T19:20:51;31.90;25.30
79571;DHT22;69034;49.444;7.758;2023-06-10T19:25:06;31.50;25.90
79571;DHT22;69034;49.444;7.758;2023-06-10T19:29:07;31.20;26.60
79571;DHT22;69034;49.444;7.758;2023-06-10T19:33:11;30.90;27.20
79571;DHT22;69034;49.444;7.758;2023-06-10T19:37:13;30.70;27.30
79571;DHT22;69034;49.444;7.758;2023-06-10T19:41:13;30.50;27.90
79571;DHT22;69034;49.444;7.758;2023-06-10T19:45:15;30.30;28.00
79571;DHT22;69034;49.444;7.758;2023-06-10T19:49:16;30.10;28.40
79571;DHT22;69034;49.444;7.758;2023-06-10T19:53:16;29.90;28.90
79571;DHT22;69034;49.444;7.758;2023-06-10T19:57:17;29.70;29.20
79571;DHT22;69034;49.444;7.758;2023-06-10T20:01:18;29.50;29.70
79571;DHT22;69034;49.444;7.758;2023-06-10T20:05:18;29.30;30.10
79571;DHT22;69034;49.444;7.758;2023-06-10T20:09:20;29.20;30.20
79571;DHT22;69034;49.444;7.758;2023-06-10T20:13:22;29.10;30.70
79571;DHT22;69034;49.444;7.758;2023-06-10T20:17:22;28.90;31.40
79571;DHT22;69034;49.444;7.758;2023-06-10T20:21:23;28.80;31.70
79571;DHT22;69034;49.444;7.758;2023-06-10T20:25:23;28.70;32.00
79571;DHT22;69034;49.444;7.758;2023-06-10T20:29:24;28.60;32.40
79571;DHT22;69034;49.444;7.758;2023-06-10T20:33:28;28.50;32.70
79571;DHT22;69034;49.444;7.758;2023-06-10T20:37:28;28.40;33.10
79571;DHT22;69034;49.444;7.758;2023-06-10T20:41:29;28.30;33.20
79571;DHT22;69034;49.444;7.758;2023-06-10T20:45:30;28.20;33.50
79571;DHT22;69034;49.444;7.758;2023-06-10T20:49:31;28.10;33.90
79571;DHT22;69034;49.444;7.758;2023-06-10T20:53:31;28.00;34.20
79571;DHT22;69034;49.444;7.758;2023-06-10T20:57:33;27.90;34.70
79571;DHT22;69034;49.444;7.758;2023-06-10T21:01:34;27.90;35.00
79571;DHT22;69034;49.444;7.758;2023-06-10T21:05:35;27.80;34.90
79571;DHT22;69034;49.444;7.758;2023-06-10T21:09:36;27.70;35.30
79571;DHT22;69034;49.444;7.758;2023-06-10T21:13:36;27.60;36.00
79571;DHT22;69034;49.444;7.758;2023-06-10T21:17:37;27.50;36.10
79571;DHT22;69034;49.444;7.758;2023-06-10T21:21:38;27.40;36.50
79571;DHT22;69034;49.444;7.758;2023-06-10T21:25:39;27.30;36.80
79571;DHT22;69034;49.444;7.758;2023-06-10T21:29:39;27.20;37.20
79571;DHT22;69034;49.444;7.758;2023-06-10T21:33:43;27.20;37.10
79571;DHT22;69034;49.444;7.758;2023-06-10T21:37:43;27.10;37.40
79571;DHT22;69034;49.444;7.758;2023-06-10T21:41:44;27.10;37.20
79571;DHT22;69034;49.444;7.758;2023-06-10T21:45:45;26.90;37.50
79571;DHT22;69034;49.444;7.758;2023-06-10T21:49:45;26.80;37.90
79571;DHT22;69034;49.444;7.758;2023-06-10T21:53:46;26.70;38.40
79571;DHT22;69034;49.444;7.758;2023-06-10T21:57:47;26.70;38.40
79571;DHT22;69034;49.444;7.758;2023-06-10T22:01:47;26.60;38.60
79571;DHT22;69034;49.444;7.758;2023-06-10T22:05:48;26.50;38.90
79571;DHT22;69034;49.444;7.758;2023-06-10T22:09:49;26.40;39.10
79571;DHT22;69034;49.444;7.758;2023-06-10T22:13:50;26.30;39.50
79571;DHT22;69034;49.444;7.758;2023-06-10T22:17:50;26.20;39.80
79571;DHT22;69034;49.444;7.758;2023-06-10T22:21:51;26.20;39.90
79571;DHT22;69034;49.444;7.758;2023-06-10T22:25:51;26.10;39.90
79571;DHT22;69034;49.444;7.758;2023-06-10T22:29:52;26.00;40.40
79571;DHT22;69034;49.444;7.758;2023-06-10T22:33:53;25.90;40.40
79571;DHT22;69034;49.444;7.758;2023-06-10T22:37:53;25.80;40.70
79571;DHT22;69034;49.444;7.758;2023-06-10T22:41:55;25.70;41.00
79571;DHT22;69034;49.444;7.758;2023-06-10T22:45:55;25.70;41.50
79571;DHT22;69034;49.444;7.758;2023-06-10T22:49:56;25.60;41.60
79571;DHT22;69034;49.444;7.758;2023-06-10T22:53:58;25.50;41.90
79571;DHT22;69034;49.444;7.758;2023-06-10T22:57:58;25.50;41.60
79571;DHT22;69034;49.444;7.758;2023-06-10T23:02:00;25.50;41.30
79571;DHT22;69034;49.444;7.758;2023-06-10T23:06:00;25.40;41.30
79571;DHT22;69034;49.444;7.758;2023-06-10T23:10:01;25.30;41.40
79571;DHT22;69034;49.444;7.758;2023-06-10T23:14:04;25.30;41.50
79571;DHT22;69034;49.444;7.758;2023-06-10T23:18:04;25.20;41.60
79571;DHT22;69034;49.444;7.758;2023-06-10T23:22:06;25.20;41.70
79571;DHT22;69034;49.444;7.758;2023-06-10T23:26:08;25.10;41.80
79571;DHT22;69034;49.444;7.758;2023-06-10T23:30:09;25.00;41.90
79571;DHT22;69034;49.444;7.758;2023-06-10T23:34:10;25.00;42.00
79571;DHT22;69034;49.444;7.758;2023-06-10T23:38:11;24.90;42.10
79571;DHT22;69034;49.444;7.758;2023-06-10T23:42:11;24.80;42.30
79571;DHT22;69034;49.444;7.758;2023-06-10T23:46:12;24.70;42.50
79571;DHT22;69034;49.444;7.758;2023-06-10T23:50:13;24.50;42.70
79571;DHT22;69034;49.444;7.758;2023-06-10T23:54:14;24.40;42.90
79571;DHT22;69034;49.444;7.758;2023-06-10T23:58:15;24.30;43.10
